sensor_id;sensor_type;location;lat;lon;timestamp;P1;durP1;ratioP1;P2;durP2;ratioP2
595;SDS011;19946;49.306;11.350;2022-10-13T00:01:45;256.73;;;247.93;;
595;SDS011;19946;49.306;11.350;2022-10-13T00:04:45;296.27;;;285.93;;
595;SDS011;19946;49.306;11.350;2022-10-13T00:07:45;418.63;;;404.43;;
595;SDS011;19946;49.306;11.350;2022-10-13T00:10:47;432.87;;;418.57;;
595;SDS011;19946;49.306;11.350;2022-10-13T00:14:09;391.53;;;378.70;;
595;SDS011;19946;49.306;11.350;2022-10-13T00:17:09;329.70;;;319.07;;
595;SDS011;19946;49.306;11.350;2022-10-13T00:20:10;327.07;;;316.33;;
595;SDS011;19946;49.306;11.350;2022-10-13T00:23:11;380.83;;;368.43;;
595;SDS011;19946;49.306;11.350;2022-10-13T00:26:13;370.70;;;358.77;;
595;SDS011;19946;49.306;11.350;2022-10-13T00:29:15;361.03;;;349.27;;
595;SDS011;19946;49.306;11.350;2022-10-13T00:32:15;384.40;;;372.00;;
595;SDS011;19946;49.306;11.350;2022-10-13T00:35:16;363.43;;;351.93;;
595;SDS011;19946;49.306;11.350;2022-10-13T00:38:17;344.30;;;333.40;;
595;SDS011;19946;49.306;11.350;2022-10-13T00:41:19;342.13;;;331.43;;
595;SDS011;19946;49.306;11.350;2022-10-13T00:47:59;331.93;;;321.43;;
595;SDS011;19946;49.306;11.350;2022-10-13T00:51:01;282.93;;;273.63;;
595;SDS011;19946;49.306;11.350;2022-10-13T00:54:01;224.87;;;217.33;;
595;SDS011;19946;49.306;11.350;2022-10-13T00:57:04;301.33;;;291.47;;
595;SDS011;19946;49.306;11.350;2022-10-13T01:00:07;315.80;;;305.50;;
595;SDS011;19946;49.306;11.350;2022-10-13T01:03:08;264.43;;;255.63;;
595;SDS011;19946;49.306;11.350;2022-10-13T01:06:09;237.70;;;229.60;;
595;SDS011;19946;49.306;11.350;2022-10-13T01:09:11;223.50;;;215.70;;
595;SDS011;19946;49.306;11.350;2022-10-13T01:12:16;181.20;;;174.60;;
595;SDS011;19946;49.306;11.350;2022-10-13T01:15:31;194.97;;;187.97;;
595;SDS011;19946;49.306;11.350;2022-10-13T01:22:00;161.67;;;155.67;;
595;SDS011;19946;49.306;11.350;2022-10-13T01:25:37;161.37;;;155.47;;
595;SDS011;19946;49.306;11.350;2022-10-13T01:36:03;525.93;;;507.93;;
595;SDS011;19946;49.306;11.350;2022-10-13T01:39:37;335.47;;;324.07;;
595;SDS011;19946;49.306;11.350;2022-10-13T01:42:45;349.20;;;337.37;;
595;SDS011;19946;49.306;11.350;2022-10-13T01:45:57;342.73;;;330.93;;
595;SDS011;19946;49.306;11.350;2022-10-13T01:49:04;475.03;;;458.80;;
595;SDS011;19946;49.306;11.350;2022-10-13T01:52:12;348.43;;;336.60;;
595;SDS011;19946;49.306;11.350;2022-10-13T01:55:15;320.70;;;309.70;;
595;SDS011;19946;49.306;11.350;2022-10-13T01:58:16;322.63;;;311.63;;
595;SDS011;19946;49.306;11.350;2022-10-13T02:04:44;383.37;;;370.47;;
595;SDS011;19946;49.306;11.350;2022-10-13T02:08:00;402.50;;;389.00;;
595;SDS011;19946;49.306;11.350;2022-10-13T02:11:15;404.27;;;390.87;;
595;SDS011;19946;49.306;11.350;2022-10-13T02:14:23;389.40;;;376.60;;
595;SDS011;19946;49.306;11.350;2022-10-13T02:17:27;392.07;;;379.27;;
595;SDS011;19946;49.306;11.350;2022-10-13T02:20:28;323.97;;;313.47;;
595;SDS011;19946;49.306;11.350;2022-10-13T02:23:29;365.77;;;353.90;;
595;SDS011;19946;49.306;11.350;2022-10-13T02:26:31;356.07;;;344.77;;
595;SDS011;19946;49.306;11.350;2022-10-13T02:29:50;398.10;;;385.13;;
595;SDS011;19946;49.306;11.350;2022-10-13T02:32:57;419.13;;;405.40;;
595;SDS011;19946;49.306;11.350;2022-10-13T02:36:01;399.97;;;386.97;;
595;SDS011;19946;49.306;11.350;2022-10-13T02:39:01;367.43;;;355.47;;
595;SDS011;19946;49.306;11.350;2022-10-13T02:42:01;368.90;;;356.80;;
595;SDS011;19946;49.306;11.350;2022-10-13T02:45:02;360.33;;;348.53;;
595;SDS011;19946;49.306;11.350;2022-10-13T02:48:03;230.83;;;222.93;;
595;SDS011;19946;49.306;11.350;2022-10-13T02:51:03;147.77;;;142.37;;
595;SDS011;19946;49.306;11.350;2022-10-13T02:54:04;212.50;;;205.00;;
595;SDS011;19946;49.306;11.350;2022-10-13T02:57:04;296.30;;;286.30;;
595;SDS011;19946;49.306;11.350;2022-10-13T03:00:05;320.43;;;309.63;;
595;SDS011;19946;49.306;11.350;2022-10-13T03:03:08;366.40;;;354.20;;
595;SDS011;19946;49.306;11.350;2022-10-13T03:06:10;447.33;;;432.23;;
595;SDS011;19946;49.306;11.350;2022-10-13T03:09:10;424.53;;;410.37;;
595;SDS011;19946;49.306;11.350;2022-10-13T03:12:12;408.47;;;394.97;;
595;SDS011;19946;49.306;11.350;2022-10-13T03:15:12;476.17;;;460.67;;
595;SDS011;19946;49.306;11.350;2022-10-13T03:18:12;487.50;;;471.50;;
595;SDS011;19946;49.306;11.350;2022-10-13T03:21:13;458.53;;;443.63;;
595;SDS011;19946;49.306;11.350;2022-10-13T03:24:14;424.37;;;410.33;;
595;SDS011;19946;49.306;11.350;2022-10-13T03:27:15;395.73;;;382.83;;
595;SDS011;19946;49.306;11.350;2022-10-13T03:30:15;375.67;;;363.50;;
595;SDS011;19946;49.306;11.350;2022-10-13T03:33:15;389.17;;;376.57;;
595;SDS011;19946;49.306;11.350;2022-10-13T03:36:16;367.57;;;355.47;;
595;SDS011;19946;49.306;11.350;2022-10-13T03:39:18;391.10;;;378.30;;
595;SDS011;19946;49.306;11.350;2022-10-13T03:42:19;383.23;;;370.77;;
595;SDS011;19946;49.306;11.350;2022-10-13T03:45:20;438.50;;;424.10;;
595;SDS011;19946;49.306;11.350;2022-10-13T03:48:21;436.53;;;422.10;;
595;SDS011;19946;49.306;11.350;2022-10-13T03:51:22;411.70;;;397.90;;
595;SDS011;19946;49.306;11.350;2022-10-13T03:54:23;457.67;;;442.17;;
595;SDS011;19946;49.306;11.350;2022-10-13T03:57:26;462.97;;;447.37;;
595;SDS011;19946;49.306;11.350;2022-10-13T04:00:27;464.03;;;448.43;;
595;SDS011;19946;49.306;11.350;2022-10-13T04:03:27;446.47;;;431.37;;
595;SDS011;19946;49.306;11.350;2022-10-13T04:06:28;438.67;;;423.83;;
595;SDS011;19946;49.306;11.350;2022-10-13T04:09:29;401.70;;;388.10;;
595;SDS011;19946;49.306;11.350;2022-10-13T04:12:30;336.03;;;324.10;;
595;SDS011;19946;49.306;11.350;2022-10-13T04:15:38;377.00;;;364.10;;
595;SDS011;19946;49.306;11.350;2022-10-13T04:18:39;326.37;;;315.13;;
595;SDS011;19946;49.306;11.350;2022-10-13T04:21:39;252.00;;;243.00;;
595;SDS011;19946;49.306;11.350;2022-10-13T04:24:40;204.67;;;196.97;;
595;SDS011;19946;49.306;11.350;2022-10-13T04:27:41;110.83;;;106.63;;
595;SDS011;19946;49.306;11.350;2022-10-13T04:30:41;157.57;;;151.57;;
595;SDS011;19946;49.306;11.350;2022-10-13T04:33:42;207.27;;;199.77;;
595;SDS011;19946;49.306;11.350;2022-10-13T04:36:43;187.53;;;180.53;;
595;SDS011;19946;49.306;11.350;2022-10-13T04:39:43;185.70;;;178.80;;
595;SDS011;19946;49.306;11.350;2022-10-13T04:42:44;165.00;;;158.70;;
595;SDS011;19946;49.306;11.350;2022-10-13T04:45:44;173.73;;;167.13;;
595;SDS011;19946;49.306;11.350;2022-10-13T04:48:46;194.97;;;187.83;;
595;SDS011;19946;49.306;11.350;2022-10-13T04:51:47;213.97;;;206.47;;
595;SDS011;19946;49.306;11.350;2022-10-13T04:54:48;217.10;;;209.40;;
595;SDS011;19946;49.306;11.350;2022-10-13T04:57:48;219.07;;;211.33;;
595;SDS011;19946;49.306;11.350;2022-10-13T05:00:48;225.87;;;217.77;;
595;SDS011;19946;49.306;11.350;2022-10-13T05:03:50;257.47;;;248.77;;
595;SDS011;19946;49.306;11.350;2022-10-13T05:06:55;284.90;;;275.60;;
595;SDS011;19946;49.306;11.350;2022-10-13T05:09:55;304.80;;;294.90;;
595;SDS011;19946;49.306;11.350;2022-10-13T05:12:55;260.27;;;251.77;;
595;SDS011;19946;49.306;11.350;2022-10-13T05:15:56;214.53;;;207.23;;
595;SDS011;19946;49.306;11.350;2022-10-13T05:18:57;174.40;;;168.00;;
595;SDS011;19946;49.306;11.350;2022-10-13T05:21:57;198.00;;;191.00;;
595;SDS011;19946;49.306;11.350;2022-10-13T05:24:57;222.30;;;214.60;;
595;SDS011;19946;49.306;11.350;2022-10-13T05:27:58;254.27;;;245.73;;
595;SDS011;19946;49.306;11.350;2022-10-13T05:31:11;279.07;;;269.77;;
595;SDS011;19946;49.306;11.350;2022-10-13T05:34:14;251.37;;;242.63;;
595;SDS011;19946;49.306;11.350;2022-10-13T05:37:14;257.80;;;248.90;;
595;SDS011;19946;49.306;11.350;2022-10-13T05:40:18;273.27;;;263.97;;
595;SDS011;19946;49.306;11.350;2022-10-13T05:43:20;243.43;;;234.93;;
595;SDS011;19946;49.306;11.350;2022-10-13T05:46:20;258.67;;;249.80;;
595;SDS011;19946;49.306;11.350;2022-10-13T05:49:21;252.83;;;244.13;;
595;SDS011;19946;49.306;11.350;2022-10-13T05:52:21;239.03;;;230.63;;
595;SDS011;19946;49.306;11.350;2022-10-13T05:55:26;227.93;;;219.83;;
595;SDS011;19946;49.306;11.350;2022-10-13T05:58:26;217.23;;;209.33;;
595;SDS011;19946;49.306;11.350;2022-10-13T06:01:27;173.27;;;166.60;;
595;SDS011;19946;49.306;11.350;2022-10-13T06:04:33;158.00;;;152.00;;
595;SDS011;19946;49.306;11.350;2022-10-13T06:07:38;156.03;;;150.03;;
595;SDS011;19946;49.306;11.350;2022-10-13T06:10:39;153.00;;;147.10;;
595;SDS011;19946;49.306;11.350;2022-10-13T06:13:41;119.83;;;115.23;;
595;SDS011;19946;49.306;11.350;2022-10-13T06:16:41;109.90;;;105.80;;
595;SDS011;19946;49.306;11.350;2022-10-13T06:19:41;109.40;;;105.20;;
595;SDS011;19946;49.306;11.350;2022-10-13T06:22:42;103.83;;;99.83;;
595;SDS011;19946;49.306;11.350;2022-10-13T06:25:48;88.77;;;85.37;;
595;SDS011;19946;49.306;11.350;2022-10-13T06:28:49;88.37;;;84.87;;
595;SDS011;19946;49.306;11.350;2022-10-13T06:31:50;78.13;;;74.93;;
595;SDS011;19946;49.306;11.350;2022-10-13T06:34:51;81.00;;;77.80;;
595;SDS011;19946;49.306;11.350;2022-10-13T06:37:51;79.47;;;76.37;;
595;SDS011;19946;49.306;11.350;2022-10-13T06:40:52;91.43;;;87.83;;
595;SDS011;19946;49.306;11.350;2022-10-13T06:43:55;95.70;;;91.90;;
595;SDS011;19946;49.306;11.350;2022-10-13T06:46:55;102.60;;;98.53;;
595;SDS011;19946;49.306;11.350;2022-10-13T06:49:55;95.37;;;91.67;;
595;SDS011;19946;49.306;11.350;2022-10-13T06:52:56;79.90;;;76.70;;
595;SDS011;19946;49.306;11.350;2022-10-13T06:55:57;89.87;;;86.43;;
595;SDS011;19946;49.306;11.350;2022-10-13T06:58:58;63.63;;;61.03;;
595;SDS011;19946;49.306;11.350;2022-10-13T07:01:58;63.40;;;60.80;;
595;SDS011;19946;49.306;11.350;2022-10-13T07:04:59;63.00;;;60.40;;
595;SDS011;19946;49.306;11.350;2022-10-13T07:07:59;66.60;;;63.80;;
595;SDS011;19946;49.306;11.350;2022-10-13T07:11:09;65.50;;;62.90;;
595;SDS011;19946;49.306;11.350;2022-10-13T07:14:14;60.03;;;57.63;;
595;SDS011;19946;49.306;11.350;2022-10-13T07:17:14;59.70;;;57.20;;
595;SDS011;19946;49.306;11.350;2022-10-13T07:20:15;66.00;;;63.30;;
595;SDS011;19946;49.306;11.350;2022-10-13T07:23:15;72.80;;;69.70;;
595;SDS011;19946;49.306;11.350;2022-10-13T07:26:15;86.03;;;82.53;;
595;SDS011;19946;49.306;11.350;2022-10-13T07:29:16;85.67;;;82.17;;
595;SDS011;19946;49.306;11.350;2022-10-13T07:32:16;85.13;;;81.63;;
595;SDS011;19946;49.306;11.350;2022-10-13T07:35:17;76.00;;;72.90;;
595;SDS011;19946;49.306;11.350;2022-10-13T07:38:18;62.70;;;60.00;;
595;SDS011;19946;49.306;11.350;2022-10-13T07:41:21;55.67;;;53.27;;
595;SDS011;19946;49.306;11.350;2022-10-13T07:44:21;53.60;;;51.30;;
595;SDS011;19946;49.306;11.350;2022-10-13T07:47:22;50.10;;;48.00;;
595;SDS011;19946;49.306;11.350;2022-10-13T07:50:22;47.40;;;45.40;;
595;SDS011;19946;49.306;11.350;2022-10-13T07:53:23;44.23;;;42.33;;
595;SDS011;19946;49.306;11.350;2022-10-13T07:56:23;45.77;;;43.77;;
595;SDS011;19946;49.306;11.350;2022-10-13T07:59:23;44.73;;;42.83;;
595;SDS011;19946;49.306;11.350;2022-10-13T08:02:24;41.90;;;40.10;;
595;SDS011;19946;49.306;11.350;2022-10-13T08:05:25;43.50;;;41.60;;
595;SDS011;19946;49.306;11.350;2022-10-13T08:08:26;41.43;;;39.63;;
595;SDS011;19946;49.306;11.350;2022-10-13T08:11:28;39.43;;;37.63;;
595;SDS011;19946;49.306;11.350;2022-10-13T08:14:29;36.57;;;34.97;;
595;SDS011;19946;49.306;11.350;2022-10-13T08:17:30;35.30;;;33.80;;
595;SDS011;19946;49.306;11.350;2022-10-13T08:20:31;37.30;;;35.60;;
595;SDS011;19946;49.306;11.350;2022-10-13T08:23:31;35.77;;;34.07;;
595;SDS011;19946;49.306;11.350;2022-10-13T08:26:32;34.73;;;33.13;;
595;SDS011;19946;49.306;11.350;2022-10-13T08:29:32;35.97;;;34.27;;
595;SDS011;19946;49.306;11.350;2022-10-13T08:32:33;36.40;;;34.60;;
595;SDS011;19946;49.306;11.350;2022-10-13T08:35:33;33.93;;;32.23;;
595;SDS011;19946;49.306;11.350;2022-10-13T08:38:34;30.50;;;29.03;;
595;SDS011;19946;49.306;11.350;2022-10-13T08:41:35;29.30;;;27.80;;
595;SDS011;19946;49.306;11.350;2022-10-13T08:44:41;28.30;;;26.90;;
595;SDS011;19946;49.306;11.350;2022-10-13T08:47:46;28.27;;;26.87;;
595;SDS011;19946;49.306;11.350;2022-10-13T08:50:52;28.40;;;27.00;;
595;SDS011;19946;49.306;11.350;2022-10-13T08:53:55;27.77;;;26.37;;
595;SDS011;19946;49.306;11.350;2022-10-13T08:56:57;26.90;;;25.50;;
595;SDS011;19946;49.306;11.350;2022-10-13T08:59:58;26.17;;;24.87;;
595;SDS011;19946;49.306;11.350;2022-10-13T09:03:13;24.80;;;23.50;;
595;SDS011;19946;49.306;11.350;2022-10-13T09:06:40;25.77;;;24.47;;
595;SDS011;19946;49.306;11.350;2022-10-13T09:09:48;25.80;;;24.50;;
595;SDS011;19946;49.306;11.350;2022-10-13T09:12:51;25.07;;;23.77;;
595;SDS011;19946;49.306;11.350;2022-10-13T09:15:52;24.60;;;23.40;;
595;SDS011;19946;49.306;11.350;2022-10-13T09:18:52;25.33;;;24.03;;
595;SDS011;19946;49.306;11.350;2022-10-13T09:22:14;25.20;;;23.90;;
595;SDS011;19946;49.306;11.350;2022-10-13T09:25:27;25.53;;;24.23;;
595;SDS011;19946;49.306;11.350;2022-10-13T09:28:29;25.20;;;23.90;;
595;SDS011;19946;49.306;11.350;2022-10-13T09:31:30;23.40;;;22.20;;
595;SDS011;19946;49.306;11.350;2022-10-13T09:34:32;25.03;;;23.70;;
595;SDS011;19946;49.306;11.350;2022-10-13T09:37:37;24.90;;;23.60;;
595;SDS011;19946;49.306;11.350;2022-10-13T09:40:38;24.50;;;23.20;;
595;SDS011;19946;49.306;11.350;2022-10-13T09:46:44;23.70;;;22.50;;
595;SDS011;19946;49.306;11.350;2022-10-13T09:49:57;23.00;;;21.80;;
595;SDS011;19946;49.306;11.350;2022-10-13T09:53:32;31.60;;;30.10;;
595;SDS011;19946;49.306;11.350;2022-10-13T09:56:46;23.10;;;21.90;;
595;SDS011;19946;49.306;11.350;2022-10-13T10:00:09;24.10;;;22.80;;
595;SDS011;19946;49.306;11.350;2022-10-13T10:03:32;23.60;;;22.40;;
595;SDS011;19946;49.306;11.350;2022-10-13T10:06:37;24.50;;;23.20;;
595;SDS011;19946;49.306;11.350;2022-10-13T10:09:46;24.37;;;23.17;;
595;SDS011;19946;49.306;11.350;2022-10-13T10:12:51;24.00;;;22.80;;
595;SDS011;19946;49.306;11.350;2022-10-13T10:15:53;23.97;;;22.77;;
595;SDS011;19946;49.306;11.350;2022-10-13T10:26:44;24.20;;;23.00;;
595;SDS011;19946;49.306;11.350;2022-10-13T10:29:49;25.27;;;23.97;;
595;SDS011;19946;49.306;11.350;2022-10-13T10:33:04;25.20;;;23.90;;
595;SDS011;19946;49.306;11.350;2022-10-13T10:36:11;24.93;;;23.63;;
595;SDS011;19946;49.306;11.350;2022-10-13T10:42:24;25.70;;;24.30;;
595;SDS011;19946;49.306;11.350;2022-10-13T10:45:38;26.27;;;24.87;;
595;SDS011;19946;49.306;11.350;2022-10-13T10:48:39;26.53;;;25.13;;
595;SDS011;19946;49.306;11.350;2022-10-13T10:51:39;26.03;;;24.63;;
595;SDS011;19946;49.306;11.350;2022-10-13T11:04:30;25.33;;;24.03;;
595;SDS011;19946;49.306;11.350;2022-10-13T11:10:45;24.90;;;23.60;;
595;SDS011;19946;49.306;11.350;2022-10-13T11:13:52;25.10;;;23.80;;
595;SDS011;19946;49.306;11.350;2022-10-13T11:26:27;26.33;;;25.03;;
595;SDS011;19946;49.306;11.350;2022-10-13T11:32:46;24.07;;;22.77;;
595;SDS011;19946;49.306;11.350;2022-10-13T11:35:55;24.53;;;23.23;;
595;SDS011;19946;49.306;11.350;2022-10-13T11:45:27;25.70;;;24.40;;
595;SDS011;19946;49.306;11.350;2022-10-13T11:55:18;25.90;;;24.50;;
595;SDS011;19946;49.306;11.350;2022-10-13T11:58:30;25.00;;;23.70;;
595;SDS011;19946;49.306;11.350;2022-10-13T12:01:33;25.40;;;24.10;;
595;SDS011;19946;49.306;11.350;2022-10-13T12:04:33;24.90;;;23.60;;
595;SDS011;19946;49.306;11.350;2022-10-13T12:07:35;24.60;;;23.30;;
595;SDS011;19946;49.306;11.350;2022-10-13T12:10:37;25.40;;;24.10;;
595;SDS011;19946;49.306;11.350;2022-10-13T12:13:43;25.33;;;24.03;;
595;SDS011;19946;49.306;11.350;2022-10-13T12:16:52;24.40;;;23.10;;
595;SDS011;19946;49.306;11.350;2022-10-13T12:19:54;23.90;;;22.70;;
595;SDS011;19946;49.306;11.350;2022-10-13T12:22:59;25.03;;;23.73;;
595;SDS011;19946;49.306;11.350;2022-10-13T12:25:59;24.40;;;23.20;;
595;SDS011;19946;49.306;11.350;2022-10-13T12:29:01;24.60;;;23.40;;
595;SDS011;19946;49.306;11.350;2022-10-13T12:32:15;24.80;;;23.60;;
595;SDS011;19946;49.306;11.350;2022-10-13T12:35:19;25.30;;;24.00;;
595;SDS011;19946;49.306;11.350;2022-10-13T12:38:20;25.47;;;24.17;;
595;SDS011;19946;49.306;11.350;2022-10-13T12:41:24;25.63;;;24.33;;
595;SDS011;19946;49.306;11.350;2022-10-13T12:44:27;24.90;;;23.60;;
595;SDS011;19946;49.306;11.350;2022-10-13T12:50:48;26.10;;;24.80;;
595;SDS011;19946;49.306;11.350;2022-10-13T12:53:48;25.80;;;24.50;;
595;SDS011;19946;49.306;11.350;2022-10-13T12:56:49;27.63;;;26.23;;
595;SDS011;19946;49.306;11.350;2022-10-13T12:59:52;26.77;;;25.37;;
595;SDS011;19946;49.306;11.350;2022-10-13T13:02:59;25.30;;;24.00;;
595;SDS011;19946;49.306;11.350;2022-10-13T13:09:18;25.27;;;23.97;;
595;SDS011;19946;49.306;11.350;2022-10-13T13:12:22;26.40;;;25.00;;
595;SDS011;19946;49.306;11.350;2022-10-13T13:15:33;26.30;;;24.90;;
595;SDS011;19946;49.306;11.350;2022-10-13T13:18:36;25.80;;;24.40;;
595;SDS011;19946;49.306;11.350;2022-10-13T13:21:40;25.13;;;23.83;;
595;SDS011;19946;49.306;11.350;2022-10-13T13:24:41;25.00;;;23.70;;
595;SDS011;19946;49.306;11.350;2022-10-13T13:27:44;25.90;;;24.50;;
595;SDS011;19946;49.306;11.350;2022-10-13T13:30:49;26.00;;;24.67;;
595;SDS011;19946;49.306;11.350;2022-10-13T13:33:50;25.20;;;23.90;;
595;SDS011;19946;49.306;11.350;2022-10-13T13:36:50;25.60;;;24.30;;
595;SDS011;19946;49.306;11.350;2022-10-13T13:39:51;25.30;;;24.00;;
595;SDS011;19946;49.306;11.350;2022-10-13T13:42:52;25.30;;;24.00;;
595;SDS011;19946;49.306;11.350;2022-10-13T13:45:54;25.00;;;23.70;;
595;SDS011;19946;49.306;11.350;2022-10-13T13:48:54;25.40;;;24.10;;
595;SDS011;19946;49.306;11.350;2022-10-13T13:51:55;25.20;;;23.90;;
595;SDS011;19946;49.306;11.350;2022-10-13T13:54:55;26.20;;;24.80;;
595;SDS011;19946;49.306;11.350;2022-10-13T13:57:56;26.33;;;24.93;;
595;SDS011;19946;49.306;11.350;2022-10-13T14:00:57;26.03;;;24.63;;
595;SDS011;19946;49.306;11.350;2022-10-13T14:03:58;25.83;;;24.53;;
595;SDS011;19946;49.306;11.350;2022-10-13T14:06:59;24.77;;;23.57;;
595;SDS011;19946;49.306;11.350;2022-10-13T14:09:59;23.90;;;22.70;;
595;SDS011;19946;49.306;11.350;2022-10-13T14:13:00;23.70;;;22.50;;
595;SDS011;19946;49.306;11.350;2022-10-13T14:16:00;33.03;;;31.53;;
595;SDS011;19946;49.306;11.350;2022-10-13T14:19:01;24.60;;;23.40;;
595;SDS011;19946;49.306;11.350;2022-10-13T14:22:02;24.83;;;23.63;;
595;SDS011;19946;49.306;11.350;2022-10-13T14:25:04;30.23;;;28.83;;
595;SDS011;19946;49.306;11.350;2022-10-13T14:28:05;25.13;;;23.93;;
595;SDS011;19946;49.306;11.350;2022-10-13T14:31:05;24.23;;;23.03;;
595;SDS011;19946;49.306;11.350;2022-10-13T14:34:08;23.60;;;22.50;;
595;SDS011;19946;49.306;11.350;2022-10-13T14:37:09;24.80;;;23.70;;
595;SDS011;19946;49.306;11.350;2022-10-13T14:40:10;25.20;;;24.00;;
595;SDS011;19946;49.306;11.350;2022-10-13T14:43:10;24.63;;;23.53;;
595;SDS011;19946;49.306;11.350;2022-10-13T14:46:11;23.90;;;22.80;;
595;SDS011;19946;49.306;11.350;2022-10-13T14:49:11;24.07;;;22.97;;
595;SDS011;19946;49.306;11.350;2022-10-13T14:52:15;23.50;;;22.40;;
595;SDS011;19946;49.306;11.350;2022-10-13T14:55:16;23.60;;;22.50;;
595;SDS011;19946;49.306;11.350;2022-10-13T14:58:16;23.80;;;22.70;;
595;SDS011;19946;49.306;11.350;2022-10-13T15:01:17;24.20;;;23.10;;
595;SDS011;19946;49.306;11.350;2022-10-13T15:04:17;26.20;;;25.00;;
595;SDS011;19946;49.306;11.350;2022-10-13T15:07:18;25.57;;;24.37;;
595;SDS011;19946;49.306;11.350;2022-10-13T15:10:18;24.87;;;23.77;;
595;SDS011;19946;49.306;11.350;2022-10-13T15:13:19;24.10;;;23.00;;
595;SDS011;19946;49.306;11.350;2022-10-13T15:16:25;23.80;;;22.70;;
595;SDS011;19946;49.306;11.350;2022-10-13T15:19:28;25.40;;;24.20;;
595;SDS011;19946;49.306;11.350;2022-10-13T15:22:28;25.30;;;24.10;;
595;SDS011;19946;49.306;11.350;2022-10-13T15:25:28;24.90;;;23.70;;
595;SDS011;19946;49.306;11.350;2022-10-13T15:28:32;25.10;;;23.90;;
595;SDS011;19946;49.306;11.350;2022-10-13T15:31:35;25.40;;;24.20;;
595;SDS011;19946;49.306;11.350;2022-10-13T15:34:37;24.00;;;22.90;;
595;SDS011;19946;49.306;11.350;2022-10-13T15:37:38;24.60;;;23.50;;
595;SDS011;19946;49.306;11.350;2022-10-13T15:40:39;26.03;;;24.83;;
595;SDS011;19946;49.306;11.350;2022-10-13T15:43:39;23.57;;;22.57;;
595;SDS011;19946;49.306;11.350;2022-10-13T15:46:39;23.30;;;22.30;;
595;SDS011;19946;49.306;11.350;2022-10-13T15:49:40;24.03;;;22.93;;
595;SDS011;19946;49.306;11.350;2022-10-13T15:52:40;24.80;;;23.70;;
595;SDS011;19946;49.306;11.350;2022-10-13T15:55:41;25.40;;;24.30;;
595;SDS011;19946;49.306;11.350;2022-10-13T15:58:41;25.30;;;24.10;;
595;SDS011;19946;49.306;11.350;2022-10-13T16:01:41;24.80;;;23.70;;
595;SDS011;19946;49.306;11.350;2022-10-13T16:04:42;35.93;;;34.43;;
595;SDS011;19946;49.306;11.350;2022-10-13T16:07:42;24.47;;;23.37;;
595;SDS011;19946;49.306;11.350;2022-10-13T16:10:43;25.30;;;24.20;;
595;SDS011;19946;49.306;11.350;2022-10-13T16:13:47;30.13;;;28.83;;
595;SDS011;19946;49.306;11.350;2022-10-13T16:16:48;27.50;;;26.30;;
595;SDS011;19946;49.306;11.350;2022-10-13T16:19:48;31.20;;;29.80;;
595;SDS011;19946;49.306;11.350;2022-10-13T16:22:49;30.73;;;29.33;;
595;SDS011;19946;49.306;11.350;2022-10-13T16:25:49;35.07;;;33.47;;
595;SDS011;19946;49.306;11.350;2022-10-13T16:28:52;34.10;;;32.60;;
595;SDS011;19946;49.306;11.350;2022-10-13T16:31:54;33.80;;;32.30;;
595;SDS011;19946;49.306;11.350;2022-10-13T16:34:54;34.30;;;32.70;;
595;SDS011;19946;49.306;11.350;2022-10-13T16:37:56;32.07;;;30.57;;
595;SDS011;19946;49.306;11.350;2022-10-13T16:40:56;39.20;;;37.40;;
595;SDS011;19946;49.306;11.350;2022-10-13T16:43:57;37.20;;;35.50;;
595;SDS011;19946;49.306;11.350;2022-10-13T16:46:57;36.90;;;35.20;;
595;SDS011;19946;49.306;11.350;2022-10-13T16:49:59;40.37;;;38.57;;
595;SDS011;19946;49.306;11.350;2022-10-13T16:53:00;35.43;;;33.83;;
595;SDS011;19946;49.306;11.350;2022-10-13T16:56:01;37.60;;;35.97;;
595;SDS011;19946;49.306;11.350;2022-10-13T16:59:03;38.00;;;36.30;;
595;SDS011;19946;49.306;11.350;2022-10-13T17:02:05;37.77;;;36.07;;
595;SDS011;19946;49.306;11.350;2022-10-13T17:05:06;33.03;;;31.63;;
595;SDS011;19946;49.306;11.350;2022-10-13T17:08:07;32.40;;;30.90;;
595;SDS011;19946;49.306;11.350;2022-10-13T17:11:09;29.60;;;28.20;;
595;SDS011;19946;49.306;11.350;2022-10-13T17:14:15;34.47;;;32.77;;
595;SDS011;19946;49.306;11.350;2022-10-13T17:17:15;36.97;;;35.07;;
595;SDS011;19946;49.306;11.350;2022-10-13T17:20:16;34.00;;;32.30;;
595;SDS011;19946;49.306;11.350;2022-10-13T17:23:17;29.07;;;27.57;;
595;SDS011;19946;49.306;11.350;2022-10-13T17:26:18;32.50;;;30.90;;
595;SDS011;19946;49.306;11.350;2022-10-13T17:29:20;36.53;;;34.73;;
595;SDS011;19946;49.306;11.350;2022-10-13T17:32:20;40.87;;;38.87;;
595;SDS011;19946;49.306;11.350;2022-10-13T17:35:21;43.73;;;41.53;;
595;SDS011;19946;49.306;11.350;2022-10-13T17:38:22;36.50;;;34.70;;
595;SDS011;19946;49.306;11.350;2022-10-13T17:41:22;33.50;;;31.80;;
595;SDS011;19946;49.306;11.350;2022-10-13T17:44:23;35.17;;;33.37;;
595;SDS011;19946;49.306;11.350;2022-10-13T17:47:23;37.20;;;35.40;;
595;SDS011;19946;49.306;11.350;2022-10-13T17:50:24;35.63;;;33.83;;
595;SDS011;19946;49.306;11.350;2022-10-13T17:53:25;38.73;;;36.73;;
595;SDS011;19946;49.306;11.350;2022-10-13T17:56:25;35.97;;;34.17;;
595;SDS011;19946;49.306;11.350;2022-10-13T17:59:26;32.00;;;30.50;;
595;SDS011;19946;49.306;11.350;2022-10-13T18:02:27;34.87;;;33.17;;
595;SDS011;19946;49.306;11.350;2022-10-13T18:05:27;41.53;;;39.53;;
595;SDS011;19946;49.306;11.350;2022-10-13T18:08:27;47.57;;;45.27;;
595;SDS011;19946;49.306;11.350;2022-10-13T18:11:29;52.90;;;50.30;;
595;SDS011;19946;49.306;11.350;2022-10-13T18:14:29;45.40;;;43.20;;
595;SDS011;19946;49.306;11.350;2022-10-13T18:17:29;47.50;;;45.20;;
595;SDS011;19946;49.306;11.350;2022-10-13T18:20:30;46.67;;;44.37;;
595;SDS011;19946;49.306;11.350;2022-10-13T18:23:31;46.00;;;43.70;;
595;SDS011;19946;49.306;11.350;2022-10-13T18:26:36;48.13;;;45.83;;
595;SDS011;19946;49.306;11.350;2022-10-13T18:29:36;46.50;;;44.30;;
595;SDS011;19946;49.306;11.350;2022-10-13T18:32:38;39.50;;;37.60;;
595;SDS011;19946;49.306;11.350;2022-10-13T18:35:38;39.47;;;37.57;;
595;SDS011;19946;49.306;11.350;2022-10-13T18:38:39;39.27;;;37.47;;
595;SDS011;19946;49.306;11.350;2022-10-13T18:41:40;39.60;;;37.80;;
595;SDS011;19946;49.306;11.350;2022-10-13T18:44:41;46.57;;;44.37;;
595;SDS011;19946;49.306;11.350;2022-10-13T18:47:41;46.60;;;44.40;;
595;SDS011;19946;49.306;11.350;2022-10-13T18:50:43;41.83;;;39.83;;
595;SDS011;19946;49.306;11.350;2022-10-13T18:53:44;39.63;;;37.73;;
595;SDS011;19946;49.306;11.350;2022-10-13T18:56:46;38.23;;;36.43;;
595;SDS011;19946;49.306;11.350;2022-10-13T18:59:46;37.77;;;35.90;;
595;SDS011;19946;49.306;11.350;2022-10-13T19:02:47;35.07;;;33.37;;
595;SDS011;19946;49.306;11.350;2022-10-13T19:05:47;37.73;;;35.93;;
595;SDS011;19946;49.306;11.350;2022-10-13T19:08:47;34.60;;;33.00;;
595;SDS011;19946;49.306;11.350;2022-10-13T19:11:50;35.17;;;33.57;;